FFT3913 KMCO-KLAS
Flight info
| Callsign | FFT3913 |
|---|---|
| Flight time | N/A |
| Altitude | 32000 |
| Route | RDSOX1 JFRYS PATOY Q116 JAWJA CABLO MEI ELD ADM KA30Y GUP HAHAA RKSTR4 |
| Aircraft | A321/M-SDE3FGHIRWY/LB1 |
Departure
| Time | N/A |
|---|---|
| Airport | Orlando International Airport (KMCO) |
Arrival
| Time | 2026-04-30 22:12 |
|---|---|
| Airport | Harry Reid International Airport (KLAS) |
| Time | Latitude | Longitude | Altitude | Speed | Heading |
|---|---|---|---|---|---|
| 2026-04-30 17:39 | 30.18933 | -83.84232 | 31971 ft | 399 kts | 302° |
| 2026-04-30 17:42 | 30.34544 | -84.10606 | 31984 ft | 394 kts | 302° |
| 2026-04-30 17:43 | 30.42260 | -84.23701 | 31975 ft | 393 kts | 302° |
| 2026-04-30 17:44 | 30.51462 | -84.39362 | 31962 ft | 392 kts | 302° |
| 2026-04-30 17:47 | 30.65261 | -84.62968 | 31954 ft | 392 kts | 302° |
| 2026-04-30 17:48 | 30.75929 | -84.81323 | 31967 ft | 392 kts | 302° |
| 2026-04-30 17:50 | 30.85852 | -85.03671 | 31968 ft | 389 kts | 295° |
| 2026-04-30 17:52 | 30.93000 | -85.20534 | 31998 ft | 386 kts | 295° |
| 2026-04-30 17:54 | 31.03603 | -85.45697 | 31957 ft | 383 kts | 295° |
| 2026-04-30 17:56 | 31.12921 | -85.67949 | 31955 ft | 381 kts | 295° |
| 2026-04-30 17:58 | 31.19876 | -85.84645 | 32008 ft | 380 kts | 294° |
| 2026-04-30 18:00 | 31.29019 | -86.06719 | 31985 ft | 376 kts | 294° |
| 2026-04-30 18:01 | 31.34709 | -86.20496 | 31960 ft | 376 kts | 294° |
| 2026-04-30 18:02 | 31.41491 | -86.37046 | 31915 ft | 377 kts | 294° |
| 2026-04-30 18:04 | 31.48293 | -86.53678 | 31934 ft | 377 kts | 294° |
| 2026-04-30 18:06 | 31.57272 | -86.75778 | 31923 ft | 375 kts | 293° |
| 2026-04-30 18:08 | 31.65074 | -86.95061 | 31889 ft | 374 kts | 293° |
| 2026-04-30 18:10 | 31.73962 | -87.17199 | 31907 ft | 377 kts | 293° |
| 2026-04-30 18:11 | 31.81733 | -87.36652 | 31960 ft | 374 kts | 293° |
| 2026-04-30 18:13 | 31.87210 | -87.50426 | 31966 ft | 372 kts | 293° |
| 2026-04-30 18:14 | 31.92676 | -87.64226 | 31969 ft | 372 kts | 293° |
| 2026-04-30 18:15 | 31.99224 | -87.80838 | 31990 ft | 372 kts | 292° |
| 2026-04-30 18:16 | 32.03562 | -87.91882 | 32004 ft | 372 kts | 292° |
| 2026-04-30 18:17 | 32.05735 | -87.97431 | 32010 ft | 372 kts | 292° |
| 2026-04-30 18:18 | 32.08974 | -88.05715 | 32051 ft | 370 kts | 292° |
| 2026-04-30 18:18 | 32.11126 | -88.11219 | 32032 ft | 369 kts | 292° |
| 2026-04-30 18:19 | 32.13271 | -88.16722 | 32041 ft | 369 kts | 292° |
| 2026-04-30 18:19 | 32.15400 | -88.22195 | 32037 ft | 369 kts | 292° |
| 2026-04-30 18:20 | 32.17545 | -88.27714 | 32035 ft | 369 kts | 292° |
| 2026-04-30 18:20 | 32.19684 | -88.33228 | 32052 ft | 370 kts | 292° |
| 2026-04-30 18:21 | 32.21819 | -88.38749 | 32048 ft | 369 kts | 292° |
| 2026-04-30 18:21 | 32.23592 | -88.43339 | 32043 ft | 369 kts | 292° |
| 2026-04-30 18:22 | 32.26076 | -88.49771 | 32035 ft | 370 kts | 292° |
| 2026-04-30 18:22 | 32.28929 | -88.57171 | 32028 ft | 370 kts | 292° |
| 2026-04-30 18:23 | 32.31049 | -88.62680 | 32022 ft | 370 kts | 292° |
| 2026-04-30 18:23 | 32.33180 | -88.68232 | 32025 ft | 370 kts | 292° |
| 2026-04-30 18:24 | 32.36364 | -88.76550 | 32036 ft | 369 kts | 292° |
| 2026-04-30 18:25 | 32.38280 | -88.82159 | 31958 ft | 366 kts | 285° |
| 2026-04-30 18:25 | 32.40363 | -88.90854 | 31901 ft | 366 kts | 285° |
| 2026-04-30 18:26 | 32.42423 | -88.99514 | 31881 ft | 366 kts | 285° |
| 2026-04-30 18:27 | 32.44494 | -89.08204 | 31876 ft | 365 kts | 285° |
| 2026-04-30 18:28 | 32.46559 | -89.16872 | 31901 ft | 366 kts | 285° |
| 2026-04-30 18:28 | 32.48615 | -89.25579 | 31905 ft | 366 kts | 284° |
| 2026-04-30 18:29 | 32.51368 | -89.37200 | 31900 ft | 366 kts | 284° |
| 2026-04-30 18:30 | 32.54091 | -89.48843 | 31917 ft | 366 kts | 284° |
| 2026-04-30 18:31 | 32.56140 | -89.57569 | 31940 ft | 366 kts | 284° |
| 2026-04-30 18:32 | 32.58171 | -89.66269 | 31941 ft | 366 kts | 284° |
| 2026-04-30 18:33 | 32.60195 | -89.75007 | 31963 ft | 366 kts | 284° |
| 2026-04-30 18:33 | 32.62230 | -89.83753 | 32015 ft | 366 kts | 284° |
| 2026-04-30 18:34 | 32.64248 | -89.92494 | 32001 ft | 365 kts | 284° |
| 2026-04-30 18:35 | 32.65585 | -89.98307 | 31998 ft | 364 kts | 284° |
| 2026-04-30 18:35 | 32.66915 | -90.04111 | 32015 ft | 364 kts | 284° |
| 2026-04-30 18:36 | 32.68901 | -90.12785 | 32014 ft | 364 kts | 284° |
| 2026-04-30 18:37 | 32.70884 | -90.21490 | 32017 ft | 364 kts | 284° |
| 2026-04-30 18:37 | 32.72209 | -90.27297 | 32016 ft | 364 kts | 284° |
| 2026-04-30 18:38 | 32.73533 | -90.33109 | 32025 ft | 364 kts | 284° |
| 2026-04-30 18:38 | 32.74851 | -90.38919 | 32023 ft | 364 kts | 284° |
| 2026-04-30 18:39 | 32.76155 | -90.44691 | 32021 ft | 364 kts | 284° |
| 2026-04-30 18:39 | 32.77462 | -90.50493 | 32032 ft | 364 kts | 284° |
| 2026-04-30 18:40 | 32.78765 | -90.56312 | 32031 ft | 363 kts | 284° |
| 2026-04-30 18:40 | 32.80065 | -90.62120 | 32041 ft | 363 kts | 284° |
| 2026-04-30 18:41 | 32.81374 | -90.67937 | 32038 ft | 363 kts | 284° |
| 2026-04-30 18:41 | 32.82671 | -90.73747 | 32038 ft | 364 kts | 284° |
| 2026-04-30 18:42 | 32.83960 | -90.79525 | 32037 ft | 364 kts | 283° |
| 2026-04-30 18:42 | 32.85901 | -90.88254 | 32039 ft | 364 kts | 283° |
| 2026-04-30 18:45 | 32.92956 | -91.20265 | 31989 ft | 363 kts | 283° |
| 2026-04-30 18:46 | 32.94223 | -91.26041 | 31993 ft | 363 kts | 283° |
| 2026-04-30 18:46 | 32.95486 | -91.31865 | 32004 ft | 362 kts | 283° |
| 2026-04-30 18:47 | 32.96748 | -91.37674 | 32025 ft | 362 kts | 283° |
| 2026-04-30 18:47 | 32.98012 | -91.43483 | 32049 ft | 362 kts | 283° |
| 2026-04-30 18:48 | 32.99270 | -91.49290 | 32054 ft | 362 kts | 283° |
| 2026-04-30 18:48 | 33.00531 | -91.55104 | 32035 ft | 362 kts | 282° |
| 2026-04-30 18:49 | 33.01781 | -91.60924 | 32036 ft | 363 kts | 282° |
| 2026-04-30 18:49 | 33.03027 | -91.66761 | 32037 ft | 363 kts | 282° |
| 2026-04-30 18:50 | 33.04281 | -91.72599 | 32037 ft | 364 kts | 282° |
| 2026-04-30 18:50 | 33.05537 | -91.78436 | 32038 ft | 364 kts | 282° |
| 2026-04-30 18:51 | 33.06775 | -91.84246 | 32036 ft | 364 kts | 282° |
| 2026-04-30 18:51 | 33.08023 | -91.90095 | 32036 ft | 364 kts | 282° |
| 2026-04-30 18:52 | 33.09266 | -91.95942 | 32032 ft | 364 kts | 282° |
| 2026-04-30 18:52 | 33.10502 | -92.01799 | 32031 ft | 364 kts | 282° |
| 2026-04-30 18:53 | 33.11737 | -92.07656 | 32033 ft | 364 kts | 282° |
| 2026-04-30 18:53 | 33.12975 | -92.13525 | 32036 ft | 364 kts | 282° |
| 2026-04-30 18:54 | 33.14201 | -92.19359 | 32084 ft | 365 kts | 282° |
| 2026-04-30 18:54 | 33.15438 | -92.25238 | 32076 ft | 365 kts | 282° |
| 2026-04-30 18:55 | 33.16670 | -92.31112 | 32057 ft | 365 kts | 281° |
| 2026-04-30 18:55 | 33.18512 | -92.39956 | 32054 ft | 365 kts | 281° |
| 2026-04-30 18:56 | 33.20337 | -92.48763 | 32055 ft | 365 kts | 281° |
| 2026-04-30 18:57 | 33.22166 | -92.57603 | 32055 ft | 365 kts | 281° |
| 2026-04-30 18:57 | 33.23384 | -92.63495 | 32063 ft | 365 kts | 281° |
| 2026-04-30 18:58 | 33.25196 | -92.72333 | 32070 ft | 365 kts | 281° |
| 2026-04-30 18:59 | 33.27129 | -92.81086 | 32065 ft | 365 kts | 283° |
| 2026-04-30 19:00 | 33.29948 | -92.92776 | 32045 ft | 365 kts | 283° |
| 2026-04-30 19:01 | 33.32681 | -93.04478 | 32052 ft | 365 kts | 283° |
| 2026-04-30 19:02 | 33.34716 | -93.13214 | 32046 ft | 365 kts | 282° |
| 2026-04-30 19:03 | 33.37434 | -93.24914 | 32046 ft | 365 kts | 282° |
| 2026-04-30 19:04 | 33.40145 | -93.36628 | 32043 ft | 365 kts | 282° |
| 2026-04-30 19:05 | 33.42835 | -93.48340 | 32046 ft | 365 kts | 282° |
| 2026-04-30 19:06 | 33.45521 | -93.60059 | 32054 ft | 365 kts | 282° |
| 2026-04-30 19:06 | 33.47525 | -93.68847 | 32054 ft | 365 kts | 282° |
| 2026-04-30 19:07 | 33.49513 | -93.77602 | 32069 ft | 364 kts | 282° |
| 2026-04-30 19:08 | 33.52163 | -93.89326 | 32070 ft | 364 kts | 282° |
| 2026-04-30 19:09 | 33.53933 | -93.97171 | 32076 ft | 365 kts | 282° |
| 2026-04-30 19:09 | 33.55241 | -94.03009 | 32079 ft | 365 kts | 282° |
| 2026-04-30 19:10 | 33.57869 | -94.14758 | 32060 ft | 364 kts | 282° |
| 2026-04-30 19:11 | 33.59827 | -94.23567 | 32041 ft | 364 kts | 282° |
| 2026-04-30 19:12 | 33.61141 | -94.29449 | 32063 ft | 365 kts | 282° |
| 2026-04-30 19:12 | 33.62441 | -94.35289 | 32066 ft | 364 kts | 282° |
| 2026-04-30 19:13 | 33.65038 | -94.47030 | 32050 ft | 363 kts | 282° |
| 2026-04-30 19:14 | 33.66325 | -94.52897 | 32044 ft | 363 kts | 282° |
| 2026-04-30 19:14 | 33.67610 | -94.58757 | 32023 ft | 363 kts | 281° |
| 2026-04-30 19:15 | 33.68894 | -94.64617 | 32023 ft | 363 kts | 281° |
| 2026-04-30 19:15 | 33.70808 | -94.73375 | 32030 ft | 363 kts | 281° |
| 2026-04-30 19:16 | 33.72083 | -94.79244 | 32027 ft | 363 kts | 281° |
| 2026-04-30 19:17 | 33.73993 | -94.88047 | 32028 ft | 363 kts | 281° |
| 2026-04-30 19:17 | 33.75896 | -94.96862 | 32026 ft | 363 kts | 281° |
| 2026-04-30 19:18 | 33.77795 | -95.05676 | 32032 ft | 363 kts | 281° |
| 2026-04-30 19:19 | 33.79060 | -95.11550 | 32032 ft | 363 kts | 281° |
| 2026-04-30 19:19 | 33.80944 | -95.20343 | 32039 ft | 363 kts | 281° |
| 2026-04-30 19:20 | 33.82191 | -95.26227 | 32048 ft | 363 kts | 281° |
| 2026-04-30 19:21 | 33.84080 | -95.35052 | 32089 ft | 363 kts | 281° |
| 2026-04-30 19:22 | 33.86555 | -95.46758 | 32086 ft | 362 kts | 281° |
| 2026-04-30 19:23 | 33.90262 | -95.64351 | 32057 ft | 361 kts | 281° |
| 2026-04-30 19:24 | 33.92099 | -95.73153 | 32040 ft | 361 kts | 281° |
| 2026-04-30 19:25 | 33.95158 | -95.87822 | 32045 ft | 361 kts | 281° |
| 2026-04-30 19:26 | 33.97580 | -95.99545 | 32052 ft | 361 kts | 281° |
| 2026-04-30 19:27 | 33.99390 | -96.08368 | 32060 ft | 361 kts | 281° |
| 2026-04-30 19:28 | 34.01207 | -96.17180 | 32065 ft | 361 kts | 281° |
| 2026-04-30 19:29 | 34.03620 | -96.28933 | 32072 ft | 361 kts | 280° |
| 2026-04-30 19:30 | 34.05985 | -96.40705 | 32100 ft | 361 kts | 280° |
| 2026-04-30 19:31 | 34.08376 | -96.52457 | 32072 ft | 361 kts | 280° |
| 2026-04-30 19:31 | 34.10151 | -96.61278 | 32028 ft | 361 kts | 280° |
| 2026-04-30 19:32 | 34.11326 | -96.67163 | 32028 ft | 361 kts | 280° |
| 2026-04-30 19:32 | 34.12504 | -96.73049 | 32031 ft | 361 kts | 280° |
| 2026-04-30 19:33 | 34.13672 | -96.78896 | 32038 ft | 361 kts | 280° |
| 2026-04-30 19:33 | 34.14842 | -96.84778 | 32025 ft | 361 kts | 280° |
| 2026-04-30 19:34 | 34.16016 | -96.90669 | 32035 ft | 361 kts | 280° |
| 2026-04-30 19:35 | 34.17767 | -96.99509 | 32041 ft | 361 kts | 279° |
| 2026-04-30 19:35 | 34.18926 | -97.05401 | 32043 ft | 361 kts | 279° |
| 2026-04-30 19:36 | 34.20080 | -97.11293 | 32042 ft | 361 kts | 279° |
| 2026-04-30 19:36 | 34.21788 | -97.20102 | 32040 ft | 360 kts | 279° |
| 2026-04-30 19:37 | 34.22871 | -97.26021 | 32039 ft | 360 kts | 279° |
| 2026-04-30 19:37 | 34.23941 | -97.31940 | 32034 ft | 360 kts | 279° |
| 2026-04-30 19:38 | 34.25015 | -97.37852 | 32027 ft | 360 kts | 279° |
| 2026-04-30 19:38 | 34.26099 | -97.43775 | 32065 ft | 360 kts | 279° |
| 2026-04-30 19:39 | 34.27172 | -97.49658 | 32049 ft | 360 kts | 279° |
| 2026-04-30 19:39 | 34.28245 | -97.55580 | 32039 ft | 360 kts | 279° |
| 2026-04-30 19:40 | 34.29317 | -97.61499 | 32029 ft | 360 kts | 278° |
| 2026-04-30 19:40 | 34.30387 | -97.67422 | 32027 ft | 360 kts | 278° |
| 2026-04-30 19:41 | 34.31450 | -97.73349 | 32027 ft | 360 kts | 278° |
| 2026-04-30 19:41 | 34.32514 | -97.79282 | 32030 ft | 360 kts | 278° |
| 2026-04-30 19:42 | 34.33573 | -97.85217 | 32029 ft | 361 kts | 278° |
| 2026-04-30 19:42 | 34.34629 | -97.91148 | 32030 ft | 360 kts | 278° |
| 2026-04-30 19:43 | 34.35679 | -97.97045 | 32030 ft | 361 kts | 278° |
| 2026-04-30 19:44 | 34.37260 | -98.05963 | 32035 ft | 361 kts | 278° |
| 2026-04-30 19:44 | 34.38301 | -98.11902 | 32037 ft | 361 kts | 278° |
| 2026-04-30 19:45 | 34.39345 | -98.17848 | 32036 ft | 361 kts | 278° |
| 2026-04-30 19:45 | 34.40390 | -98.23799 | 32037 ft | 361 kts | 278° |
| 2026-04-30 19:46 | 34.41429 | -98.29748 | 32037 ft | 361 kts | 278° |
| 2026-04-30 19:46 | 34.42466 | -98.35707 | 32043 ft | 361 kts | 278° |
| 2026-04-30 19:47 | 34.43495 | -98.41629 | 32042 ft | 361 kts | 278° |
| 2026-04-30 19:47 | 34.44527 | -98.47587 | 32068 ft | 362 kts | 278° |
| 2026-04-30 19:48 | 34.45554 | -98.53559 | 32060 ft | 362 kts | 278° |
| 2026-04-30 19:48 | 34.46581 | -98.59538 | 32047 ft | 362 kts | 278° |
| 2026-04-30 19:49 | 34.47610 | -98.65516 | 32042 ft | 362 kts | 278° |
| 2026-04-30 19:49 | 34.49153 | -98.74494 | 32035 ft | 363 kts | 278° |
| 2026-04-30 19:50 | 34.50170 | -98.80447 | 32027 ft | 363 kts | 278° |
| 2026-04-30 19:50 | 34.51181 | -98.86440 | 32029 ft | 363 kts | 278° |
| 2026-04-30 19:51 | 34.52195 | -98.92439 | 32032 ft | 363 kts | 278° |
| 2026-04-30 19:51 | 34.53211 | -98.98439 | 32029 ft | 363 kts | 278° |
| 2026-04-30 19:52 | 34.54219 | -99.04440 | 32028 ft | 363 kts | 278° |
| 2026-04-30 19:52 | 34.55224 | -99.10438 | 32025 ft | 363 kts | 278° |
| 2026-04-30 19:53 | 34.56230 | -99.16449 | 32028 ft | 363 kts | 278° |
| 2026-04-30 19:53 | 34.57228 | -99.22461 | 32029 ft | 363 kts | 278° |
| 2026-04-30 19:54 | 34.58225 | -99.28476 | 32025 ft | 363 kts | 278° |
| 2026-04-30 19:54 | 34.59215 | -99.34451 | 32032 ft | 363 kts | 278° |
| 2026-04-30 19:55 | 34.60209 | -99.40464 | 32017 ft | 363 kts | 278° |
| 2026-04-30 19:55 | 34.61195 | -99.46482 | 32012 ft | 363 kts | 278° |
| 2026-04-30 19:56 | 34.62182 | -99.52509 | 32051 ft | 364 kts | 277° |
| 2026-04-30 19:56 | 34.63168 | -99.58537 | 32032 ft | 364 kts | 277° |
| 2026-04-30 19:57 | 34.63986 | -99.63556 | 32022 ft | 365 kts | 277° |
| 2026-04-30 19:57 | 34.65127 | -99.70580 | 32021 ft | 365 kts | 277° |
| 2026-04-30 19:58 | 34.66109 | -99.76628 | 32020 ft | 365 kts | 277° |
| 2026-04-30 19:58 | 34.66923 | -99.81662 | 32020 ft | 365 kts | 277° |
| 2026-04-30 19:59 | 34.67902 | -99.87716 | 32013 ft | 366 kts | 277° |
| 2026-04-30 20:00 | 34.69360 | -99.96833 | 32013 ft | 367 kts | 277° |
| 2026-04-30 20:00 | 34.70327 | -100.02919 | 32018 ft | 367 kts | 277° |
| 2026-04-30 20:01 | 34.71777 | -100.12058 | 32019 ft | 367 kts | 277° |
| 2026-04-30 20:01 | 34.72735 | -100.18118 | 32027 ft | 367 kts | 277° |
| 2026-04-30 20:02 | 34.74183 | -100.27268 | 32026 ft | 368 kts | 277° |
| 2026-04-30 20:03 | 34.75612 | -100.36434 | 32029 ft | 368 kts | 277° |
| 2026-04-30 20:03 | 34.76571 | -100.42548 | 32031 ft | 368 kts | 277° |
| 2026-04-30 20:04 | 34.77528 | -100.48655 | 32027 ft | 368 kts | 277° |
| 2026-04-30 20:05 | 34.78942 | -100.57836 | 32057 ft | 368 kts | 276° |
| 2026-04-30 20:05 | 34.80341 | -100.66970 | 32050 ft | 367 kts | 276° |
| 2026-04-30 20:06 | 34.81279 | -100.73074 | 32038 ft | 367 kts | 276° |
| 2026-04-30 20:06 | 34.82221 | -100.79182 | 32034 ft | 367 kts | 276° |
| 2026-04-30 20:07 | 34.83152 | -100.85287 | 32031 ft | 367 kts | 276° |
| 2026-04-30 20:08 | 34.84534 | -100.94452 | 32020 ft | 367 kts | 276° |
| 2026-04-30 20:08 | 34.85449 | -101.00560 | 32018 ft | 367 kts | 276° |
| 2026-04-30 20:09 | 34.86373 | -101.06678 | 32011 ft | 367 kts | 276° |
| 2026-04-30 20:09 | 34.87751 | -101.15861 | 32010 ft | 367 kts | 276° |
| 2026-04-30 20:10 | 34.89119 | -101.25004 | 32012 ft | 367 kts | 276° |
| 2026-04-30 20:11 | 34.90475 | -101.34187 | 32003 ft | 367 kts | 276° |
| 2026-04-30 20:11 | 34.91381 | -101.40317 | 32005 ft | 368 kts | 276° |
| 2026-04-30 20:12 | 34.92721 | -101.49523 | 32007 ft | 368 kts | 276° |
| 2026-04-30 20:13 | 34.93619 | -101.55656 | 32003 ft | 368 kts | 276° |
| 2026-04-30 20:13 | 34.94513 | -101.61795 | 32043 ft | 368 kts | 276° |
| 2026-04-30 20:14 | 34.95401 | -101.67921 | 32035 ft | 366 kts | 276° |
| 2026-04-30 20:14 | 34.96282 | -101.74028 | 32031 ft | 365 kts | 276° |
| 2026-04-30 20:15 | 34.97155 | -101.80072 | 32027 ft | 364 kts | 276° |
| 2026-04-30 20:15 | 34.98030 | -101.86151 | 32024 ft | 364 kts | 276° |
| 2026-04-30 20:16 | 34.98898 | -101.92241 | 32024 ft | 364 kts | 276° |
| 2026-04-30 20:16 | 34.99766 | -101.98319 | 32017 ft | 363 kts | 276° |
| 2026-04-30 20:17 | 35.00507 | -102.04407 | 32009 ft | 362 kts | 274° |
| 2026-04-30 20:17 | 35.01074 | -102.10519 | 32005 ft | 362 kts | 273° |
| 2026-04-30 20:18 | 35.01619 | -102.16604 | 32007 ft | 363 kts | 273° |
| 2026-04-30 20:18 | 35.02196 | -102.22721 | 32056 ft | 363 kts | 273° |
| 2026-04-30 20:19 | 35.02789 | -102.28852 | 32058 ft | 363 kts | 273° |
| 2026-04-30 20:19 | 35.03378 | -102.34976 | 32059 ft | 363 kts | 273° |
| 2026-04-30 20:20 | 35.03959 | -102.41100 | 32049 ft | 363 kts | 273° |
| 2026-04-30 20:20 | 35.04535 | -102.47229 | 32043 ft | 364 kts | 273° |
| 2026-04-30 20:21 | 35.05108 | -102.53363 | 32035 ft | 364 kts | 273° |
| 2026-04-30 20:21 | 35.05683 | -102.59508 | 32027 ft | 364 kts | 273° |
| 2026-04-30 20:22 | 35.06256 | -102.65649 | 32021 ft | 364 kts | 273° |
| 2026-04-30 20:22 | 35.06824 | -102.71788 | 32020 ft | 364 kts | 273° |
| 2026-04-30 20:23 | 35.07383 | -102.77938 | 32025 ft | 364 kts | 273° |
| 2026-04-30 20:23 | 35.07938 | -102.84077 | 32060 ft | 363 kts | 273° |
| 2026-04-30 20:24 | 35.08492 | -102.90160 | 32055 ft | 362 kts | 273° |
| 2026-04-30 20:24 | 35.09045 | -102.96306 | 32047 ft | 361 kts | 273° |
| 2026-04-30 20:25 | 35.09859 | -103.05411 | 32037 ft | 361 kts | 273° |
| 2026-04-30 20:26 | 35.10679 | -103.14542 | 32012 ft | 360 kts | 273° |
| 2026-04-30 20:26 | 35.11485 | -103.23672 | 32001 ft | 360 kts | 273° |
| 2026-04-30 20:27 | 35.12543 | -103.35848 | 31979 ft | 360 kts | 272° |
| 2026-04-30 20:28 | 35.13588 | -103.48031 | 31986 ft | 360 kts | 272° |
| 2026-04-30 20:30 | 35.14880 | -103.63218 | 31969 ft | 360 kts | 272° |
| 2026-04-30 20:31 | 35.16401 | -103.81475 | 32034 ft | 360 kts | 272° |
| 2026-04-30 20:32 | 35.17655 | -103.96676 | 31978 ft | 359 kts | 272° |
| 2026-04-30 20:33 | 35.18388 | -104.05758 | 31951 ft | 359 kts | 272° |
| 2026-04-30 20:34 | 35.19125 | -104.14876 | 31937 ft | 359 kts | 272° |
| 2026-04-30 20:35 | 35.19843 | -104.23996 | 31914 ft | 359 kts | 271° |
| 2026-04-30 20:35 | 35.20568 | -104.33124 | 31929 ft | 360 kts | 271° |
| 2026-04-30 20:36 | 35.21050 | -104.39218 | 31919 ft | 360 kts | 271° |
| 2026-04-30 20:37 | 35.21757 | -104.48334 | 31920 ft | 360 kts | 271° |
| 2026-04-30 20:37 | 35.22219 | -104.54447 | 31914 ft | 360 kts | 271° |
| 2026-04-30 20:38 | 35.22681 | -104.60552 | 31915 ft | 360 kts | 271° |
| 2026-04-30 20:38 | 35.23151 | -104.66657 | 31908 ft | 360 kts | 271° |
| 2026-04-30 20:39 | 35.23845 | -104.75765 | 31905 ft | 360 kts | 271° |
| 2026-04-30 20:40 | 35.24521 | -104.84909 | 31909 ft | 360 kts | 271° |
| 2026-04-30 20:40 | 35.24968 | -104.91010 | 31909 ft | 360 kts | 271° |
| 2026-04-30 20:41 | 35.25644 | -105.00163 | 31887 ft | 361 kts | 271° |
| 2026-04-30 20:41 | 35.26090 | -105.06286 | 31892 ft | 362 kts | 271° |
| 2026-04-30 20:42 | 35.26529 | -105.12419 | 31902 ft | 362 kts | 271° |
| 2026-04-30 20:43 | 35.27179 | -105.21594 | 31907 ft | 362 kts | 271° |
| 2026-04-30 20:43 | 35.27618 | -105.27739 | 31962 ft | 362 kts | 271° |
| 2026-04-30 20:44 | 35.28267 | -105.36943 | 31953 ft | 361 kts | 270° |
| 2026-04-30 20:45 | 35.29115 | -105.49175 | 31945 ft | 360 kts | 270° |
| 2026-04-30 20:45 | 35.29529 | -105.55276 | 31937 ft | 359 kts | 270° |
| 2026-04-30 20:46 | 35.30360 | -105.67478 | 31907 ft | 360 kts | 270° |
| 2026-04-30 20:47 | 35.30965 | -105.76617 | 31903 ft | 361 kts | 270° |
| 2026-04-30 20:48 | 35.31573 | -105.85812 | 31877 ft | 361 kts | 270° |
| 2026-04-30 20:48 | 35.31977 | -105.91949 | 31878 ft | 361 kts | 270° |
| 2026-04-30 20:49 | 35.32309 | -105.97045 | 31886 ft | 361 kts | 270° |
| 2026-04-30 20:50 | 35.32900 | -106.06239 | 31889 ft | 361 kts | 270° |
| 2026-04-30 20:50 | 35.33293 | -106.12378 | 31877 ft | 362 kts | 270° |
| 2026-04-30 20:51 | 35.33677 | -106.18519 | 31870 ft | 362 kts | 270° |
| 2026-04-30 20:51 | 35.34252 | -106.27730 | 31832 ft | 363 kts | 270° |
| 2026-04-30 20:52 | 35.34642 | -106.33904 | 31814 ft | 363 kts | 270° |
| 2026-04-30 20:53 | 35.35213 | -106.43242 | 31764 ft | 369 kts | 269° |
| 2026-04-30 20:53 | 35.35589 | -106.49487 | 31767 ft | 370 kts | 269° |
| 2026-04-30 20:54 | 35.36153 | -106.58927 | 31803 ft | 370 kts | 270° |
| 2026-04-30 20:55 | 35.36704 | -106.68373 | 31805 ft | 370 kts | 270° |
| 2026-04-30 20:55 | 35.37077 | -106.74672 | 31787 ft | 371 kts | 269° |
| 2026-04-30 20:56 | 35.37629 | -106.84113 | 31787 ft | 372 kts | 269° |
| 2026-04-30 20:57 | 35.38174 | -106.93612 | 31788 ft | 373 kts | 269° |
| 2026-04-30 20:57 | 35.38528 | -106.99948 | 31789 ft | 373 kts | 269° |
| 2026-04-30 20:58 | 35.39060 | -107.09457 | 31806 ft | 373 kts | 269° |
| 2026-04-30 20:58 | 35.39411 | -107.15788 | 31804 ft | 372 kts | 269° |
| 2026-04-30 20:59 | 35.39923 | -107.25225 | 31810 ft | 371 kts | 269° |
| 2026-04-30 21:00 | 35.40606 | -107.37824 | 31798 ft | 370 kts | 269° |
| 2026-04-30 21:01 | 35.41100 | -107.47268 | 31781 ft | 370 kts | 269° |
| 2026-04-30 21:02 | 35.41586 | -107.56726 | 31779 ft | 371 kts | 269° |
| 2026-04-30 21:02 | 35.41907 | -107.63043 | 31762 ft | 371 kts | 269° |
| 2026-04-30 21:03 | 35.42227 | -107.69360 | 31765 ft | 372 kts | 269° |
| 2026-04-30 21:03 | 35.42541 | -107.75660 | 31799 ft | 373 kts | 269° |
| 2026-04-30 21:04 | 35.42859 | -107.82026 | 31867 ft | 373 kts | 269° |
| 2026-04-30 21:04 | 35.43328 | -107.91567 | 31860 ft | 374 kts | 269° |
| 2026-04-30 21:05 | 35.43639 | -107.97926 | 31855 ft | 374 kts | 269° |
| 2026-04-30 21:05 | 35.43947 | -108.04288 | 31833 ft | 373 kts | 269° |
| 2026-04-30 21:06 | 35.44246 | -108.10639 | 31805 ft | 373 kts | 268° |
| 2026-04-30 21:06 | 35.44538 | -108.16994 | 31772 ft | 373 kts | 269° |
| 2026-04-30 21:07 | 35.44831 | -108.23355 | 31775 ft | 373 kts | 269° |
| 2026-04-30 21:07 | 35.45123 | -108.29716 | 31776 ft | 373 kts | 269° |
| 2026-04-30 21:08 | 35.45409 | -108.36044 | 31776 ft | 373 kts | 268° |
| 2026-04-30 21:08 | 35.45697 | -108.42407 | 31780 ft | 373 kts | 268° |
| 2026-04-30 21:09 | 35.45975 | -108.48770 | 31772 ft | 374 kts | 268° |
| 2026-04-30 21:09 | 35.46250 | -108.55146 | 31771 ft | 374 kts | 268° |
| 2026-04-30 21:10 | 35.46521 | -108.61533 | 31760 ft | 375 kts | 268° |
| 2026-04-30 21:10 | 35.46793 | -108.67879 | 31767 ft | 375 kts | 268° |
| 2026-04-30 21:11 | 35.47061 | -108.74270 | 31755 ft | 374 kts | 268° |
| 2026-04-30 21:11 | 35.47193 | -108.77458 | 32013 ft | 375 kts | 268° |
| 2026-04-30 21:11 | 35.47325 | -108.80655 | 31995 ft | 375 kts | 268° |
| 2026-04-30 21:12 | 35.47581 | -108.87056 | 31993 ft | 376 kts | 268° |
| 2026-04-30 21:12 | 35.47699 | -108.93488 | 31981 ft | 376 kts | 266° |
| 2026-04-30 21:13 | 35.47689 | -108.99882 | 31928 ft | 378 kts | 266° |
| 2026-04-30 21:13 | 35.47683 | -109.06337 | 31936 ft | 379 kts | 266° |
| 2026-04-30 21:14 | 35.47707 | -109.12816 | 31938 ft | 380 kts | 266° |
| 2026-04-30 21:14 | 35.47738 | -109.19313 | 31913 ft | 381 kts | 266° |
| 2026-04-30 21:15 | 35.47757 | -109.25829 | 31895 ft | 382 kts | 266° |
| 2026-04-30 21:15 | 35.47767 | -109.32317 | 31865 ft | 383 kts | 266° |
| 2026-04-30 21:16 | 35.47782 | -109.38854 | 31834 ft | 384 kts | 266° |
| 2026-04-30 21:16 | 35.47792 | -109.45404 | 31810 ft | 384 kts | 266° |
| 2026-04-30 21:17 | 35.47792 | -109.51971 | 31792 ft | 385 kts | 266° |
| 2026-04-30 21:17 | 35.47795 | -109.58567 | 31797 ft | 387 kts | 266° |
| 2026-04-30 21:18 | 35.47793 | -109.65146 | 31802 ft | 388 kts | 266° |
| 2026-04-30 21:18 | 35.47777 | -109.71796 | 31811 ft | 389 kts | 266° |
| 2026-04-30 21:19 | 35.47770 | -109.78439 | 31816 ft | 389 kts | 266° |
| 2026-04-30 21:19 | 35.47760 | -109.85096 | 31803 ft | 391 kts | 266° |
| 2026-04-30 21:20 | 35.47744 | -109.91791 | 31805 ft | 393 kts | 266° |
| 2026-04-30 21:20 | 35.47724 | -109.98524 | 31812 ft | 395 kts | 266° |
| 2026-04-30 21:21 | 35.47698 | -110.05233 | 31818 ft | 396 kts | 266° |
| 2026-04-30 21:22 | 35.47645 | -110.15388 | 31821 ft | 397 kts | 266° |
| 2026-04-30 21:23 | 35.47572 | -110.29041 | 31809 ft | 402 kts | 266° |
| 2026-04-30 21:23 | 35.47505 | -110.39368 | 31817 ft | 405 kts | 267° |
| 2026-04-30 21:24 | 35.47449 | -110.46303 | 31813 ft | 407 kts | 267° |
| 2026-04-30 21:24 | 35.47396 | -110.53266 | 31805 ft | 410 kts | 267° |
| 2026-04-30 21:25 | 35.47315 | -110.63823 | 31807 ft | 414 kts | 267° |
| 2026-04-30 21:26 | 35.47218 | -110.74400 | 31816 ft | 416 kts | 267° |
| 2026-04-30 21:27 | 35.47108 | -110.85058 | 31808 ft | 417 kts | 268° |
| 2026-04-30 21:27 | 35.47025 | -110.92199 | 31807 ft | 420 kts | 268° |
| 2026-04-30 21:28 | 35.46889 | -111.02984 | 31811 ft | 423 kts | 267° |
| 2026-04-30 21:29 | 35.46702 | -111.13868 | 31822 ft | 427 kts | 268° |
| 2026-04-30 21:30 | 35.46520 | -111.32170 | 31838 ft | 431 kts | 269° |
| 2026-04-30 21:31 | 35.46225 | -111.50530 | 31853 ft | 432 kts | 268° |
| 2026-04-30 21:32 | 35.46050 | -111.61596 | 31872 ft | 433 kts | 268° |
| 2026-04-30 21:32 | 35.45928 | -111.68987 | 31874 ft | 433 kts | 268° |
| 2026-04-30 21:33 | 35.45721 | -111.80074 | 31881 ft | 433 kts | 269° |
| 2026-04-30 21:34 | 35.45776 | -111.87472 | 31910 ft | 435 kts | 277° |
| 2026-04-30 21:34 | 35.47169 | -111.98466 | 31950 ft | 438 kts | 278° |
| 2026-04-30 21:35 | 35.48087 | -112.05865 | 31973 ft | 439 kts | 278° |
| 2026-04-30 21:35 | 35.49011 | -112.13280 | 31985 ft | 440 kts | 279° |
| 2026-04-30 21:36 | 35.49929 | -112.20709 | 31976 ft | 441 kts | 279° |
| 2026-04-30 21:37 | 35.51617 | -112.34379 | 31947 ft | 443 kts | 279° |
| 2026-04-30 21:37 | 35.52536 | -112.41856 | 31925 ft | 443 kts | 279° |
| 2026-04-30 21:38 | 35.53448 | -112.49336 | 31886 ft | 443 kts | 279° |
| 2026-04-30 21:38 | 35.54363 | -112.56833 | 31888 ft | 444 kts | 279° |
| 2026-04-30 21:39 | 35.55262 | -112.64324 | 31898 ft | 443 kts | 279° |
| 2026-04-30 21:39 | 35.56154 | -112.71799 | 31897 ft | 442 kts | 279° |
| 2026-04-30 21:40 | 35.57051 | -112.79266 | 31891 ft | 441 kts | 279° |
| 2026-04-30 21:40 | 35.57935 | -112.86725 | 31883 ft | 441 kts | 279° |
| 2026-04-30 21:41 | 35.58808 | -112.94193 | 31881 ft | 442 kts | 279° |
| 2026-04-30 21:41 | 35.59679 | -113.01666 | 31873 ft | 442 kts | 279° |
| 2026-04-30 21:42 | 35.60558 | -113.09140 | 31871 ft | 442 kts | 279° |
| 2026-04-30 21:42 | 35.61434 | -113.16627 | 31579 ft | 443 kts | 279° |
| 2026-04-30 21:43 | 35.61868 | -113.20375 | 31221 ft | 443 kts | 279° |
| 2026-04-30 21:43 | 35.62297 | -113.24107 | 30200 ft | 451 kts | 279° |
| 2026-04-30 21:43 | 35.62738 | -113.27955 | 29089 ft | 457 kts | 279° |
| 2026-04-30 21:43 | 35.63180 | -113.31835 | 28082 ft | 460 kts | 279° |
| 2026-04-30 21:44 | 35.63625 | -113.35740 | 26979 ft | 464 kts | 279° |
| 2026-04-30 21:44 | 35.64076 | -113.39691 | 25763 ft | 470 kts | 279° |
| 2026-04-30 21:44 | 35.64528 | -113.43680 | 24966 ft | 468 kts | 279° |
| 2026-04-30 21:44 | 35.64972 | -113.47628 | 24251 ft | 464 kts | 280° |
| 2026-04-30 21:45 | 35.65440 | -113.51550 | 23510 ft | 462 kts | 281° |
| 2026-04-30 21:45 | 35.66003 | -113.55405 | 22840 ft | 454 kts | 283° |
| 2026-04-30 21:45 | 35.66632 | -113.59181 | 22223 ft | 448 kts | 284° |
| 2026-04-30 21:45 | 35.67289 | -113.62900 | 21601 ft | 442 kts | 284° |
| 2026-04-30 21:46 | 35.67941 | -113.66569 | 20991 ft | 437 kts | 284° |
| 2026-04-30 21:46 | 35.68574 | -113.70206 | 20396 ft | 433 kts | 283° |
| 2026-04-30 21:46 | 35.69185 | -113.73807 | 19793 ft | 428 kts | 283° |
| 2026-04-30 21:46 | 35.69774 | -113.77381 | 19202 ft | 423 kts | 283° |
| 2026-04-30 21:47 | 35.70342 | -113.80907 | 18626 ft | 418 kts | 283° |
| 2026-04-30 21:47 | 35.70899 | -113.84400 | 18041 ft | 413 kts | 282° |
| 2026-04-30 21:47 | 35.71450 | -113.87860 | 17428 ft | 411 kts | 282° |
| 2026-04-30 21:47 | 35.71995 | -113.91284 | 16909 ft | 404 kts | 282° |
| 2026-04-30 21:48 | 35.72527 | -113.94614 | 16760 ft | 387 kts | 283° |
| 2026-04-30 21:48 | 35.73037 | -113.97801 | 16630 ft | 372 kts | 282° |
| 2026-04-30 21:48 | 35.73523 | -114.00823 | 16498 ft | 358 kts | 282° |
| 2026-04-30 21:48 | 35.73998 | -114.03773 | 16369 ft | 345 kts | 282° |
| 2026-04-30 21:49 | 35.74452 | -114.06617 | 16238 ft | 332 kts | 283° |
| 2026-04-30 21:49 | 35.74885 | -114.09354 | 16108 ft | 320 kts | 283° |
| 2026-04-30 21:49 | 35.75305 | -114.12010 | 15881 ft | 312 kts | 284° |
| 2026-04-30 21:49 | 35.75761 | -114.14607 | 15630 ft | 309 kts | 290° |
| 2026-04-30 21:50 | 35.76589 | -114.17017 | 15380 ft | 305 kts | 301° |
| 2026-04-30 21:50 | 35.77617 | -114.19299 | 15142 ft | 305 kts | 300° |
| 2026-04-30 21:50 | 35.78641 | -114.21600 | 14895 ft | 307 kts | 300° |
| 2026-04-30 21:50 | 35.79659 | -114.23901 | 14654 ft | 306 kts | 300° |
| 2026-04-30 21:51 | 35.80670 | -114.26199 | 14412 ft | 304 kts | 300° |
| 2026-04-30 21:51 | 35.81678 | -114.28494 | 14170 ft | 305 kts | 301° |
| 2026-04-30 21:51 | 35.82682 | -114.30789 | 13943 ft | 304 kts | 298° |
| 2026-04-30 21:51 | 35.83381 | -114.33252 | 13858 ft | 306 kts | 284° |
| 2026-04-30 21:52 | 35.83556 | -114.35883 | 13866 ft | 311 kts | 269° |
| 2026-04-30 21:52 | 35.83302 | -114.38511 | 13871 ft | 312 kts | 264° |
| 2026-04-30 21:52 | 35.83013 | -114.41155 | 13868 ft | 311 kts | 265° |
| 2026-04-30 21:52 | 35.82727 | -114.43793 | 13868 ft | 310 kts | 265° |
| 2026-04-30 21:53 | 35.82441 | -114.46436 | 13864 ft | 310 kts | 265° |
| 2026-04-30 21:53 | 35.82156 | -114.49064 | 13865 ft | 310 kts | 266° |
| 2026-04-30 21:53 | 35.81872 | -114.51694 | 13878 ft | 310 kts | 265° |
| 2026-04-30 21:53 | 35.81590 | -114.54323 | 13879 ft | 310 kts | 265° |
| 2026-04-30 21:54 | 35.81309 | -114.56958 | 13689 ft | 310 kts | 265° |
| 2026-04-30 21:54 | 35.81028 | -114.59582 | 13433 ft | 309 kts | 265° |
| 2026-04-30 21:54 | 35.80743 | -114.62200 | 13169 ft | 308 kts | 266° |
| 2026-04-30 21:54 | 35.80456 | -114.64807 | 12948 ft | 306 kts | 265° |
| 2026-04-30 21:55 | 35.80171 | -114.67405 | 12687 ft | 306 kts | 266° |
| 2026-04-30 21:55 | 35.79887 | -114.69991 | 12429 ft | 304 kts | 265° |
| 2026-04-30 21:55 | 35.79607 | -114.72539 | 12176 ft | 304 kts | 266° |
| 2026-04-30 21:55 | 35.79324 | -114.75108 | 11920 ft | 302 kts | 266° |
| 2026-04-30 21:56 | 35.79040 | -114.77668 | 11941 ft | 302 kts | 266° |
| 2026-04-30 21:56 | 35.78755 | -114.80236 | 11951 ft | 303 kts | 266° |
| 2026-04-30 21:56 | 35.78468 | -114.82799 | 11950 ft | 302 kts | 265° |
| 2026-04-30 21:56 | 35.78182 | -114.85372 | 11951 ft | 302 kts | 266° |
| 2026-04-30 21:57 | 35.77897 | -114.87938 | 11955 ft | 302 kts | 265° |
| 2026-04-30 21:57 | 35.77611 | -114.90502 | 11952 ft | 302 kts | 265° |
| 2026-04-30 21:57 | 35.77057 | -114.93005 | 11953 ft | 306 kts | 249° |
| 2026-04-30 21:57 | 35.75976 | -114.95269 | 11954 ft | 310 kts | 234° |
| 2026-04-30 21:58 | 35.74434 | -114.97139 | 11954 ft | 313 kts | 221° |
| 2026-04-30 21:58 | 35.72742 | -114.98838 | 11954 ft | 313 kts | 221° |
| 2026-04-30 21:58 | 35.71059 | -115.00534 | 11954 ft | 313 kts | 222° |
| 2026-04-30 21:58 | 35.69371 | -115.02236 | 11972 ft | 313 kts | 222° |
| 2026-04-30 21:59 | 35.67693 | -115.03929 | 11971 ft | 311 kts | 222° |
| 2026-04-30 21:59 | 35.66018 | -115.05624 | 11973 ft | 312 kts | 222° |
| 2026-04-30 21:59 | 35.64361 | -115.07297 | 11967 ft | 311 kts | 222° |
| 2026-04-30 22:00 | 35.61006 | -115.10677 | 11784 ft | 311 kts | 222° |
| 2026-04-30 22:00 | 35.57665 | -115.14038 | 11389 ft | 310 kts | 222° |
| 2026-04-30 22:00 | 35.56009 | -115.15725 | 11194 ft | 308 kts | 226° |
| 2026-04-30 22:01 | 35.54660 | -115.17727 | 11004 ft | 303 kts | 243° |
| 2026-04-30 22:01 | 35.53821 | -115.20065 | 10804 ft | 298 kts | 258° |
| 2026-04-30 22:01 | 35.53525 | -115.22549 | 10616 ft | 292 kts | 272° |
| 2026-04-30 22:01 | 35.53542 | -115.25035 | 10429 ft | 289 kts | 275° |
| 2026-04-30 22:02 | 35.53548 | -115.27453 | 10319 ft | 277 kts | 274° |
| 2026-04-30 22:02 | 35.53547 | -115.29780 | 10193 ft | 268 kts | 274° |
| 2026-04-30 22:02 | 35.53768 | -115.31966 | 10062 ft | 249 kts | 296° |
| 2026-04-30 22:02 | 35.54692 | -115.33664 | 9946 ft | 239 kts | 322° |
| 2026-04-30 22:03 | 35.56140 | -115.34635 | 9787 ft | 240 kts | 348° |
| 2026-04-30 22:03 | 35.57786 | -115.35037 | 9623 ft | 242 kts | 350° |
| 2026-04-30 22:03 | 35.59435 | -115.35419 | 9466 ft | 241 kts | 351° |
| 2026-04-30 22:03 | 35.61084 | -115.35805 | 9309 ft | 242 kts | 350° |
| 2026-04-30 22:04 | 35.62728 | -115.36193 | 9149 ft | 240 kts | 350° |
| 2026-04-30 22:04 | 35.64374 | -115.36482 | 9032 ft | 238 kts | 1° |
| 2026-04-30 22:04 | 35.67629 | -115.35753 | 8993 ft | 238 kts | 12° |
| 2026-04-30 22:05 | 35.69255 | -115.35326 | 8996 ft | 239 kts | 12° |
| 2026-04-30 22:05 | 35.70877 | -115.34902 | 8997 ft | 238 kts | 12° |
| 2026-04-30 22:05 | 35.72506 | -115.34478 | 8998 ft | 239 kts | 12° |
| 2026-04-30 22:05 | 35.74136 | -115.34053 | 8921 ft | 241 kts | 12° |
| 2026-04-30 22:06 | 35.75754 | -115.33632 | 8565 ft | 240 kts | 12° |
| 2026-04-30 22:06 | 35.78988 | -115.32784 | 7984 ft | 235 kts | 13° |
| 2026-04-30 22:06 | 35.80510 | -115.32090 | 7686 ft | 232 kts | 24° |
| 2026-04-30 22:07 | 35.81965 | -115.31259 | 7410 ft | 230 kts | 24° |
| 2026-04-30 22:07 | 35.83407 | -115.30438 | 7133 ft | 227 kts | 24° |
| 2026-04-30 22:07 | 35.84843 | -115.29620 | 6862 ft | 229 kts | 24° |
| 2026-04-30 22:07 | 35.86283 | -115.28801 | 6590 ft | 227 kts | 24° |
| 2026-04-30 22:08 | 35.87713 | -115.27989 | 6315 ft | 226 kts | 25° |
| 2026-04-30 22:08 | 35.89140 | -115.27180 | 6030 ft | 225 kts | 24° |
| 2026-04-30 22:08 | 35.90557 | -115.26373 | 5752 ft | 224 kts | 25° |
| 2026-04-30 22:08 | 35.91972 | -115.25566 | 5484 ft | 224 kts | 25° |
| 2026-04-30 22:09 | 35.93380 | -115.24764 | 5213 ft | 224 kts | 26° |
| 2026-04-30 22:09 | 35.94793 | -115.23958 | 4927 ft | 224 kts | 25° |
| 2026-04-30 22:09 | 35.96209 | -115.23151 | 4626 ft | 224 kts | 25° |
| 2026-04-30 22:09 | 35.97624 | -115.22346 | 4327 ft | 224 kts | 25° |
| 2026-04-30 22:10 | 35.99025 | -115.21548 | 4059 ft | 219 kts | 25° |
| 2026-04-30 22:10 | 36.00402 | -115.20762 | 3746 ft | 217 kts | 25° |
| 2026-04-30 22:10 | 36.01722 | -115.20008 | 3482 ft | 205 kts | 25° |
| 2026-04-30 22:10 | 36.02947 | -115.19309 | 3194 ft | 179 kts | 24° |
| 2026-04-30 22:11 | 36.04940 | -115.18153 | 2853 ft | 149 kts | 26° |
| 2026-04-30 22:11 | 36.05879 | -115.17628 | 2628 ft | 148 kts | 24° |
| 2026-04-30 22:11 | 36.06805 | -115.17108 | 2384 ft | 145 kts | 27° |
| 2026-04-30 22:12 | 36.07719 | -115.16584 | 2175 ft | 144 kts | 26° |
| 2026-04-30 22:12 | 36.08574 | -115.16087 | 2123 ft | 123 kts | 24° |
| 2026-04-30 22:12 | 36.09213 | -115.15723 | 2104 ft | 49 kts | 25° |
| 2026-04-30 22:12 | 36.09457 | -115.15581 | 2100 ft | 34 kts | 26° |
| 2026-04-30 22:13 | 36.09468 | -115.15429 | 2098 ft | 17 kts | 120° |
| 2026-04-30 22:13 | 36.09394 | -115.15401 | 2098 ft | 10 kts | 198° |
| 2026-04-30 22:13 | 36.09339 | -115.15433 | 2098 ft | 8 kts | 204° |
| 2026-04-30 22:13 | 36.09294 | -115.15458 | 2098 ft | 6 kts | 204° |
| 2026-04-30 22:14 | 36.09276 | -115.15468 | 2098 ft | 0 kts | 204° |
| 2026-04-30 22:14 | 36.09269 | -115.15472 | 2098 ft | 4 kts | 203° |
| 2026-04-30 22:14 | 36.09213 | -115.15501 | 2099 ft | 13 kts | 205° |
| 2026-04-30 22:14 | 36.09103 | -115.15566 | 2100 ft | 20 kts | 205° |
| 2026-04-30 22:15 | 36.08979 | -115.15637 | 2101 ft | 19 kts | 204° |
| 2026-04-30 22:15 | 36.08870 | -115.15699 | 2104 ft | 16 kts | 205° |
| 2026-04-30 22:15 | 36.08777 | -115.15753 | 2105 ft | 13 kts | 205° |
| 2026-04-30 22:15 | 36.08698 | -115.15787 | 2106 ft | 11 kts | 184° |
| 2026-04-30 22:16 | 36.08627 | -115.15764 | 2105 ft | 11 kts | 157° |
| 2026-04-30 22:16 | 36.08556 | -115.15725 | 2104 ft | 11 kts | 155° |
| 2026-04-30 22:17 | 36.08322 | -115.15591 | 2100 ft | 16 kts | 155° |
| 2026-04-30 22:17 | 36.08208 | -115.15525 | 2099 ft | 19 kts | 154° |
| 2026-04-30 22:17 | 36.07979 | -115.15392 | 2098 ft | 17 kts | 156° |
| 2026-04-30 22:18 | 36.07887 | -115.15340 | 2099 ft | 12 kts | 155° |
| 2026-04-30 22:18 | 36.07806 | -115.15197 | 2101 ft | 16 kts | 91° |
| 2026-04-30 22:19 | 36.07787 | -115.14834 | 2099 ft | 23 kts | 94° |
| 2026-04-30 22:19 | 36.07773 | -115.14638 | 2097 ft | 23 kts | 94° |
| 2026-04-30 22:19 | 36.07756 | -115.14256 | 2095 ft | 19 kts | 89° |
| 2026-04-30 22:20 | 36.07785 | -115.14164 | 2094 ft | 11 kts | 25° |
| 2026-04-30 22:20 | 36.07922 | -115.14158 | 2095 ft | 9 kts | 1° |
| 2026-04-30 22:20 | 36.07984 | -115.14157 | 2095 ft | 8 kts | 1° |
| 2026-04-30 22:21 | 36.08040 | -115.14158 | 2095 ft | 8 kts | 359° |
| 2026-04-30 22:21 | 36.08091 | -115.14158 | 2095 ft | 7 kts | 1° |
| 2026-04-30 22:21 | 36.08138 | -115.14158 | 2095 ft | 6 kts | 0° |
| 2026-04-30 22:21 | 36.08211 | -115.14158 | 2095 ft | 16 kts | 359° |
| 2026-04-30 22:22 | 36.08340 | -115.14100 | 2092 ft | 24 kts | 44° |
| 2026-04-30 22:22 | 36.08419 | -115.13941 | 2092 ft | 22 kts | 89° |
| 2026-04-30 22:22 | 36.08388 | -115.13792 | 2093 ft | 16 kts | 121° |
| 2026-04-30 22:22 | 36.08328 | -115.13724 | 2093 ft | 7 kts | 144° |
| 2026-04-30 22:23 | 36.08301 | -115.13699 | 2092 ft | 4 kts | 141° |
| 2026-04-30 22:23 | 36.08286 | -115.13684 | 2092 ft | 1 kts | 142° |